createdAt,value
2018-06-29T19:56:10.948Z,16.90
2018-06-29T20:00:14.793Z,17.00
2018-06-29T20:04:18.696Z,17.10
2018-06-29T20:08:22.563Z,17.30
2018-06-29T20:12:26.534Z,17.40
2018-06-29T20:16:30.533Z,17.50
2018-06-29T20:20:34.424Z,17.50
2018-06-29T20:24:38.505Z,17.50
2018-06-29T20:28:42.388Z,17.50
2018-06-29T20:32:46.248Z,17.60
2018-06-29T20:36:50.345Z,17.50
2018-06-29T20:40:54.217Z,17.40
2018-06-29T20:44:58.092Z,17.40
2018-06-29T20:49:02.208Z,17.30
2018-06-29T20:53:06.360Z,17.30
2018-06-29T20:57:10.369Z,17.20
2018-06-29T21:01:14.236Z,17.20
2018-06-29T21:05:18.115Z,17.10
2018-06-29T21:09:22.040Z,17.10
2018-06-29T21:13:25.912Z,17.10
2018-06-29T21:17:29.861Z,17.00
2018-06-29T21:21:33.759Z,17.00
2018-06-29T21:25:37.637Z,16.90
2018-06-29T21:29:41.524Z,16.90
2018-06-29T21:33:45.453Z,16.80
2018-06-29T21:37:49.303Z,16.80
2018-06-29T21:41:53.175Z,16.80
2018-06-29T21:45:57.070Z,16.70
2018-06-29T21:50:00.985Z,16.70
2018-06-29T21:54:04.862Z,16.60
2018-06-29T21:58:08.752Z,16.60
2018-06-29T22:02:12.699Z,16.50
2018-06-29T22:06:16.588Z,16.40
2018-06-29T22:10:20.548Z,16.40
2018-06-29T22:14:24.396Z,16.40
2018-06-29T22:18:28.272Z,16.30
2018-06-29T22:22:32.153Z,16.10
2018-06-29T22:26:36.026Z,15.90
2018-06-29T22:30:39.896Z,15.90
2018-06-29T22:34:43.784Z,15.90
2018-06-29T22:38:47.660Z,15.80
2018-06-29T22:42:51.601Z,15.80
2018-06-29T22:46:55.513Z,15.70
2018-06-29T22:50:59.488Z,15.70
2018-06-29T22:55:03.378Z,15.60
2018-06-29T22:59:07.262Z,15.60
2018-06-29T23:03:12.895Z,15.50
2018-06-29T23:07:16.860Z,15.50
2018-06-29T23:11:20.735Z,15.40
2018-06-29T23:15:24.619Z,15.40
2018-06-29T23:19:28.517Z,15.40
2018-06-29T23:23:32.468Z,15.40
2018-06-29T23:27:36.323Z,15.40
2018-06-29T23:31:40.220Z,15.30
2018-06-29T23:35:44.072Z,15.30
2018-06-29T23:39:47.960Z,15.20
2018-06-29T23:43:51.872Z,15.20
2018-06-29T23:47:56.016Z,15.20
2018-06-29T23:51:59.864Z,15.20
2018-06-29T23:56:03.771Z,15.10
